Time;durP1;ratioP1;P1;durP2;ratioP2;P2;SDS_P1;SDS_P2;PMS_P1;PMS_P2;Temp;Humidity;BMP_temperature;BMP_pressure;BME280_temperature;BME280_humidity;BME280_pressure;Samples;Min_cycle;Max_cycle;Signal;HPM_P1;HPM_P2
2021/01/29 00:00:32;;;;;;;0.93;0.60;;;8.30;99.90;;;;;;5049815;28;20029;-79
2021/01/29 00:02:59;;;;;;;1.42;0.80;;;8.30;99.90;;;;;;5048066;28;20110;-80
2021/01/29 00:05:31;;;;;;;0.70;0.47;;;8.20;99.90;;;;;;5041709;28;20492;-81
2021/01/29 00:07:57;;;;;;;1.20;0.75;;;8.20;99.90;;;;;;5047343;28;20071;-80
2021/01/29 00:10:22;;;;;;;0.82;0.70;;;8.20;99.90;;;;;;5050019;28;20037;-81
2021/01/29 00:12:48;;;;;;;1.30;0.70;;;8.10;99.90;;;;;;5042776;28;20033;-81
2021/01/29 00:15:19;;;;;;;1.15;0.82;;;8.10;99.90;;;;;;5011858;28;20059;-80
2021/01/29 00:17:44;;;;;;;1.58;0.95;;;8.10;99.90;;;;;;5043114;28;20117;-82
2021/01/29 00:20:14;;;;;;;1.48;0.70;;;8.20;99.90;;;;;;5051601;28;20060;-80
2021/01/29 00:22:40;;;;;;;;;;;8.20;99.90;;;;;;5039625;28;20082;-79
2021/01/29 00:25:11;;;;;;;0.47;0.47;;;8.20;99.90;;;;;;5048501;28;19916;-80
2021/01/29 00:27:37;;;;;;;0.85;0.57;;;8.30;99.90;;;;;;5050013;28;20025;-80
2021/01/29 00:30:05;;;;;;;1.17;0.70;;;8.20;99.90;;;;;;5041488;28;20140;-80
2021/01/29 00:32:31;;;;;;;1.25;0.77;;;8.20;99.90;;;;;;5046709;28;20036;-81
2021/01/29 00:34:56;;;;;;;0.85;0.73;;;8.20;99.90;;;;;;5049275;28;20131;-80
2021/01/29 00:37:22;;;;;;;0.98;0.50;;;8.20;99.90;;;;;;5035295;28;20543;-80
2021/01/29 00:39:48;;;;;;;0.95;0.80;;;8.20;99.90;;;;;;5053987;28;20439;-80
2021/01/29 00:42:14;;;;;;;0.77;0.70;;;8.20;99.90;;;;;;5052018;28;20056;-79
2021/01/29 00:44:39;;;;;;;1.38;1.27;;;8.20;99.90;;;;;;5053032;28;20033;-80
2021/01/29 00:47:05;;;;;;;1.02;0.80;;;8.20;99.90;;;;;;5053285;28;20086;-80
2021/01/29 00:49:30;;;;;;;1.63;0.85;;;8.20;99.90;;;;;;5046685;28;20392;-80
2021/01/29 00:51:56;;;;;;;0.80;0.55;;;8.20;99.90;;;;;;5043818;28;20148;-80
2021/01/29 00:54:22;;;;;;;1.05;0.60;;;8.10;99.90;;;;;;5052869;28;20069;-79
2021/01/29 00:56:47;;;;;;;1.65;0.57;;;8.10;99.90;;;;;;5044910;28;20089;-81
2021/01/29 00:59:13;;;;;;;0.55;0.47;;;8.10;99.90;;;;;;5064385;28;20085;-80
2021/01/29 01:01:38;;;;;;;1.75;0.75;;;8.10;99.90;;;;;;5069296;28;20089;-80
2021/01/29 01:04:04;;;;;;;0.70;0.60;;;8.10;99.90;;;;;;5067356;28;20033;-82
2021/01/29 01:06:30;;;;;;;1.75;0.80;;;8.10;99.90;;;;;;5057191;28;20013;-82
2021/01/29 01:08:55;;;;;;;0.98;0.60;;;8.10;99.90;;;;;;5070690;28;20041;-84
2021/01/29 01:11:21;;;;;;;1.33;0.80;;;8.10;99.90;;;;;;5056462;28;20132;-83
2021/01/29 01:13:47;;;;;;;1.65;0.70;;;7.90;99.90;;;;;;5055559;28;20855;-82
2021/01/29 01:16:13;;;;;;;0.40;0.40;;;7.90;99.90;;;;;;5031806;28;20125;-82
2021/01/29 01:18:38;;;;;;;0.88;0.70;;;7.90;99.90;;;;;;5050111;28;20444;-82
2021/01/29 01:21:04;;;;;;;0.40;0.40;;;7.90;99.90;;;;;;5052204;28;20476;-82
2021/01/29 01:23:30;;;;;;;1.63;0.68;;;7.90;99.90;;;;;;5031956;28;20022;-80
2021/01/29 01:25:56;;;;;;;1.05;0.55;;;7.90;99.90;;;;;;5037564;28;20048;-83
2021/01/29 01:28:21;;;;;;;0.50;0.40;;;7.90;99.90;;;;;;5045892;28;20392;-81
2021/01/29 01:30:47;;;;;;;0.32;0.30;;;8.00;99.90;;;;;;5033434;28;20033;-82
2021/01/29 01:33:13;;;;;;;1.63;0.52;;;7.90;99.90;;;;;;5030997;28;20017;-83
2021/01/29 01:35:39;;;;;;;1.65;0.50;;;7.90;99.90;;;;;;5055665;28;20510;-81
2021/01/29 01:38:06;;;;;;;0.52;0.50;;;7.90;99.90;;;;;;5039103;28;20025;-82
2021/01/29 01:40:44;;;;;;;1.05;0.80;;;8.00;99.90;;;;;;5032321;28;20033;-83
2021/01/29 01:43:10;;;;;;;0.75;0.47;;;7.90;99.90;;;;;;5029616;28;20044;-81
2021/01/29 01:46:11;;;;;;;0.52;0.43;;;7.90;99.90;;;;;;5049216;28;20017;-81
2021/01/29 01:48:41;;;;;;;0.50;0.50;;;7.90;99.90;;;;;;5037831;28;20057;-81
2021/01/29 01:51:12;;;;;;;0.40;0.40;;;7.90;99.90;;;;;;5043720;28;20025;-82
2021/01/29 01:53:45;;;;;;;0.50;0.40;;;7.90;99.90;;;;;;5052013;28;20055;-83
2021/01/29 01:56:36;;;;;;;0.60;0.50;;;7.90;99.90;;;;;;5051641;28;20041;-82
2021/01/29 01:59:07;;;;;;;0.43;0.43;;;8.00;99.90;;;;;;5053385;28;20021;-81
2021/01/29 02:01:34;;;;;;;0.50;0.45;;;8.00;99.90;;;;;;5046717;28;20021;-83
2021/01/29 02:04:01;;;;;;;0.40;0.40;;;8.00;99.90;;;;;;5053756;28;20071;-81
2021/01/29 02:06:28;;;;;;;0.50;0.50;;;8.00;99.90;;;;;;5058367;28;20049;-79
2021/01/29 02:08:58;;;;;;;0.90;0.50;;;8.00;99.90;;;;;;5058654;28;20057;-82
2021/01/29 02:11:23;;;;;;;1.08;0.50;;;8.00;99.90;;;;;;5045370;28;20087;-81
2021/01/29 02:13:49;;;;;;;0.50;0.50;;;8.00;99.90;;;;;;5052142;28;20073;-81
2021/01/29 02:16:23;;;;;;;1.25;0.30;;;7.90;99.90;;;;;;5045296;28;20029;-83
2021/01/29 02:19:28;;;;;;;0.70;0.50;;;7.90;99.90;;;;;;5053103;28;20032;-82
2021/01/29 02:22:17;;;;;;;0.63;0.45;;;7.90;99.90;;;;;;5029761;28;20813;-82
2021/01/29 02:25:01;;;;;;;1.00;0.50;;;7.90;99.90;;;;;;5046170;28;20507;-81
2021/01/29 02:27:56;;;;;;;1.55;0.30;;;7.90;99.90;;;;;;5044155;28;20133;-81
2021/01/29 02:30:47;;;;;;;0.20;0.20;;;8.00;99.90;;;;;;5050938;28;20102;-81
2021/01/29 02:33:31;;;;;;;0.90;0.43;;;8.10;99.90;;;;;;5050583;28;20029;-82
2021/01/29 02:36:18;;;;;;;1.85;0.57;;;8.10;99.90;;;;;;5028446;28;20579;-80
2021/01/29 02:38:59;;;;;;;0.38;0.30;;;8.10;99.90;;;;;;5052176;28;20112;-82
2021/01/29 02:41:50;;;;;;;0.55;0.40;;;8.20;99.90;;;;;;5061746;28;20053;-83
2021/01/29 02:44:51;;;;;;;0.80;0.40;;;8.20;99.90;;;;;;5055787;28;20088;-80
2021/01/29 02:47:28;;;;;;;0.93;0.60;;;8.20;99.90;;;;;;5041296;28;20045;-81
2021/01/29 02:50:37;;;;;;;1.50;0.63;;;8.20;99.90;;;;;;5056747;28;20033;-81
2021/01/29 02:53:48;;;;;;;1.05;0.65;;;8.10;99.90;;;;;;5059469;28;20025;-81
2021/01/29 02:56:34;;;;;;;0.70;0.35;;;8.00;99.90;;;;;;4997446;28;20166;-82
2021/01/29 02:59:28;;;;;;;0.63;0.40;;;8.00;99.90;;;;;;4997946;28;20026;-83
2021/01/29 03:02:12;;;;;;;0.90;0.55;;;7.90;99.90;;;;;;4887121;29;20496;-82
2021/01/29 03:05:09;;;;;;;0.93;0.50;;;7.90;99.90;;;;;;4873929;29;20029;-83
2021/01/29 03:07:49;;;;;;;0.93;0.60;;;7.90;99.90;;;;;;4824743;29;20042;-82
2021/01/29 03:10:41;;;;;;;0.55;0.40;;;7.90;99.90;;;;;;4815411;29;20050;-81
2021/01/29 03:13:17;;;;;;;0.63;0.43;;;7.80;99.90;;;;;;4822895;29;20532;-81
2021/01/29 03:16:15;;;;;;;0.30;0.30;;;7.90;99.90;;;;;;4831666;29;20055;-81
2021/01/29 03:18:52;;;;;;;2.67;0.63;;;7.80;99.90;;;;;;4804630;29;20108;-81
2021/01/29 03:21:25;;;;;;;1.38;0.47;;;7.80;99.90;;;;;;4791602;29;20203;-82
2021/01/29 03:23:57;;;;;;;1.50;0.40;;;7.80;99.90;;;;;;4818572;29;20043;-82
2021/01/29 03:26:31;;;;;;;0.80;0.55;;;7.80;99.90;;;;;;4819086;29;20064;-82
2021/01/29 03:29:00;;;;;;;0.88;0.40;;;7.70;99.90;;;;;;4810250;29;20027;-82
2021/01/29 03:31:28;;;;;;;1.08;0.30;;;7.70;99.90;;;;;;4823326;29;20039;-82
2021/01/29 03:34:05;;;;;;;0.30;0.30;;;7.80;99.90;;;;;;4831143;29;20046;-83
2021/01/29 03:36:37;;;;;;;0.40;0.30;;;7.80;99.90;;;;;;4843381;29;20057;-82
2021/01/29 03:39:18;;;;;;;0.82;0.30;;;7.90;99.90;;;;;;4873459;29;20062;-81
2021/01/29 03:41:50;;;;;;;1.02;0.60;;;7.90;99.90;;;;;;4912643;29;20036;-82
2021/01/29 03:44:19;;;;;;;0.40;0.32;;;7.90;99.90;;;;;;4915074;28;20046;-81
2021/01/29 03:47:06;;;;;;;0.80;0.40;;;7.90;99.90;;;;;;4981544;28;20031;-82
2021/01/29 03:49:55;;;;;;;0.40;0.40;;;7.80;99.90;;;;;;4983670;28;20130;-83
2021/01/29 03:52:40;;;;;;;1.40;0.60;;;7.70;99.90;;;;;;4971596;28;20035;-82
2021/01/29 03:55:26;;;;;;;0.38;0.30;;;7.70;99.90;;;;;;5008057;28;20056;-81
2021/01/29 03:58:14;;;;;;;1.67;0.40;;;7.70;99.90;;;;;;5043655;28;20370;-82
2021/01/29 04:01:04;;;;;;;1.00;0.50;;;7.60;99.90;;;;;;5022874;28;20237;-82
2021/01/29 04:03:41;;;;;;;2.58;0.65;;;7.60;99.90;;;;;;5022400;28;20029;-82
2021/01/29 04:06:07;;;;;;;1.48;0.47;;;7.60;99.90;;;;;;5037547;28;20018;-82
2021/01/29 04:08:56;;;;;;;0.70;0.50;;;7.60;99.90;;;;;;5037782;28;20037;-82
2021/01/29 04:11:44;;;;;;;2.45;0.60;;;7.60;99.90;;;;;;5038491;28;20102;-80
2021/01/29 04:14:27;;;;;;;2.58;0.60;;;7.60;99.90;;;;;;5031277;28;20452;-80
2021/01/29 04:16:53;;;;;;;1.35;0.70;;;7.60;99.90;;;;;;5028650;28;20766;-81
2021/01/29 04:19:22;;;;;;;1.00;0.65;;;7.60;99.90;;;;;;5039238;28;20507;-82
2021/01/29 04:21:59;;;;;;;2.63;0.60;;;7.60;99.90;;;;;;5048412;28;20116;-80
2021/01/29 04:24:34;;;;;;;0.77;0.40;;;7.50;99.90;;;;;;5042376;28;20041;-82
2021/01/29 04:27:09;;;;;;;1.25;0.50;;;7.60;99.90;;;;;;5029187;28;20029;-82
2021/01/29 04:29:44;;;;;;;0.57;0.57;;;7.60;99.90;;;;;;5045635;28;20033;-82
2021/01/29 04:32:15;;;;;;;0.60;0.50;;;7.70;99.90;;;;;;5049202;28;20033;-81
2021/01/29 04:34:45;;;;;;;0.55;0.50;;;7.70;99.90;;;;;;5047719;28;20060;-81
2021/01/29 04:37:30;;;;;;;0.70;0.32;;;7.80;99.90;;;;;;5052365;28;20032;-80
2021/01/29 04:40:06;;;;;;;0.75;0.40;;;7.90;99.90;;;;;;5037774;28;20058;-80
2021/01/29 04:43:14;;;;;;;0.40;0.28;;;7.90;99.90;;;;;;5053013;28;20047;-80
2021/01/29 04:45:52;;;;;;;1.08;0.20;;;7.90;99.90;;;;;;5049431;28;20118;-80
2021/01/29 04:48:55;;;;;;;0.85;0.52;;;7.90;99.90;;;;;;5030097;28;20049;-80
2021/01/29 04:51:59;;;;;;;0.75;0.30;;;7.90;99.90;;;;;;5047408;28;20138;-80
2021/01/29 04:54:37;;;;;;;0.60;0.30;;;7.90;99.90;;;;;;4972835;28;20150;-81
2021/01/29 04:57:30;;;;;;;0.60;0.30;;;7.90;99.90;;;;;;4967086;28;20080;-79
2021/01/29 05:00:20;;;;;;;0.60;0.30;;;7.90;99.90;;;;;;4959951;28;20038;-81
2021/01/29 05:03:00;;;;;;;0.45;0.20;;;7.90;99.90;;;;;;4967710;28;20232;-80
2021/01/29 05:05:45;;;;;;;0.65;0.28;;;7.90;99.90;;;;;;4968863;28;20031;-82
2021/01/29 05:08:29;;;;;;;0.35;0.30;;;7.80;99.90;;;;;;4966809;28;20462;-81
2021/01/29 05:11:22;;;;;;;0.20;0.20;;;7.70;99.90;;;;;;4970513;28;20517;-80
2021/01/29 05:14:13;;;;;;;0.10;0.10;;;7.70;99.90;;;;;;4958569;28;20500;-80
2021/01/29 05:16:48;;;;;;;0.77;0.22;;;7.60;99.90;;;;;;4968193;28;20486;-80
2021/01/29 05:19:39;;;;;;;1.70;0.30;;;7.40;99.90;;;;;;4968447;28;20111;-81
2021/01/29 05:22:39;;;;;;;0.30;0.25;;;7.30;99.90;;;;;;4959563;28;20059;-80
2021/01/29 05:25:22;;;;;;;0.77;0.30;;;7.20;99.90;;;;;;4964727;28;20055;-77
2021/01/29 05:28:07;;;;;;;0.68;0.30;;;7.20;99.90;;;;;;4969327;28;20511;-77
2021/01/29 05:31:00;;;;;;;0.30;0.30;;;7.10;99.90;;;;;;5018011;28;20049;-78
2021/01/29 05:33:32;;;;;;;0.40;0.30;;;7.20;99.90;;;;;;5053097;28;20075;-78
2021/01/29 05:36:16;;;;;;;0.38;0.20;;;7.10;99.90;;;;;;5043207;28;20029;-77
2021/01/29 05:38:48;;;;;;;0.85;0.35;;;7.10;99.90;;;;;;5051950;28;20040;-76
2021/01/29 05:41:51;;;;;;;0.57;0.32;;;7.10;99.90;;;;;;5042696;28;20037;-77
2021/01/29 05:44:42;;;;;;;0.25;0.25;;;7.00;99.90;;;;;;5036778;28;20034;-77
2021/01/29 05:47:41;;;;;;;0.65;0.30;;;6.90;99.90;;;;;;5043827;28;20021;-76
2021/01/29 05:50:25;;;;;;;1.35;0.40;;;6.90;99.90;;;;;;5039318;28;20533;-76
2021/01/29 05:53:10;;;;;;;2.47;0.32;;;6.80;99.90;;;;;;5049902;28;20075;-77
2021/01/29 05:56:02;;;;;;;1.00;0.35;;;6.80;99.90;;;;;;5030360;28;20105;-77
2021/01/29 05:58:27;;;;;;;2.05;0.40;;;6.80;99.90;;;;;;5053683;28;20060;-77
2021/01/29 06:01:06;;;;;;;1.00;0.40;;;6.80;99.90;;;;;;5048786;28;20033;-77
2021/01/29 06:04:00;;;;;;;1.77;0.40;;;6.80;99.90;;;;;;5050873;28;20025;-77
2021/01/29 06:06:33;;;;;;;1.00;0.40;;;6.70;99.90;;;;;;5050831;28;20688;-77
2021/01/29 06:09:05;;;;;;;1.42;0.50;;;6.70;99.90;;;;;;5045386;28;20617;-78
2021/01/29 06:11:55;;;;;;;1.95;0.20;;;6.70;99.90;;;;;;5046037;28;20024;-76
2021/01/29 06:14:55;;;;;;;1.45;0.50;;;6.70;99.90;;;;;;5050294;28;20025;-76
2021/01/29 06:17:39;;;;;;;0.77;0.40;;;6.70;99.90;;;;;;4952579;28;20106;-77
2021/01/29 06:20:07;;;;;;;0.90;0.50;;;6.70;99.90;;;;;;4950045;29;20078;-76
2021/01/29 06:23:23;;;;;;;1.73;0.50;;;6.70;99.90;;;;;;4949882;28;20039;-75
2021/01/29 06:25:59;;;;;;;2.20;0.40;;;6.70;99.90;;;;;;4906706;29;20040;-75
2021/01/29 06:29:00;;;;;;;0.47;0.40;;;6.60;99.90;;;;;;4908537;29;20095;-77
2021/01/29 06:32:02;;;;;;;1.30;0.75;;;6.60;99.90;;;;;;4900682;29;20476;-76
2021/01/29 06:35:03;;;;;;;1.27;0.30;;;6.70;99.90;;;;;;4909625;29;20044;-76
2021/01/29 06:38:08;;;;;;;1.33;0.47;;;6.70;99.90;;;;;;4907120;29;20036;-77
2021/01/29 06:40:57;;;;;;;1.80;0.40;;;6.70;99.90;;;;;;4911929;29;20054;-78
2021/01/29 06:43:39;;;;;;;0.63;0.30;;;6.70;99.90;;;;;;4908463;29;20048;-76
2021/01/29 06:46:16;;;;;;;0.98;0.50;;;6.70;99.90;;;;;;4908422;29;20486;-78
2021/01/29 06:48:56;;;;;;;1.63;0.40;;;6.70;99.90;;;;;;4916255;29;20594;-76
2021/01/29 06:51:47;;;;;;;2.75;0.50;;;6.70;99.90;;;;;;4909014;29;20043;-77
2021/01/29 06:54:33;;;;;;;1.00;0.52;;;6.70;99.90;;;;;;4982447;28;20127;-77
2021/01/29 06:57:06;;;;;;;1.58;0.57;;;6.70;99.90;;;;;;4984515;28;20026;-76
2021/01/29 07:00:08;;;;;;;1.77;0.50;;;6.70;99.90;;;;;;4986318;28;20466;-75
2021/01/29 07:03:13;;;;;;;1.20;0.50;;;6.70;99.90;;;;;;5036759;28;20128;-75
2021/01/29 07:05:50;;;;;;;1.88;0.50;;;6.70;99.90;;;;;;5037586;28;20032;-76
2021/01/29 07:08:37;;;;;;;0.25;0.20;;;6.70;99.90;;;;;;5052245;28;20375;-76
2021/01/29 07:11:17;;;;;;;1.48;0.40;;;6.80;99.90;;;;;;5036184;28;20097;-77
2021/01/29 07:14:10;;;;;;;1.45;0.40;;;6.80;99.90;;;;;;5034511;28;20548;-76
2021/01/29 07:16:44;;;;;;;3.65;0.32;;;6.80;99.90;;;;;;5033556;28;20029;-78
2021/01/29 07:19:49;;;;;;;1.15;0.32;;;6.90;99.90;;;;;;5043037;28;20037;-80
2021/01/29 07:22:56;;;;;;;1.55;0.50;;;7.10;99.90;;;;;;5037182;28;20637;-80
2021/01/29 07:25:47;;;;;;;0.30;0.30;;;7.30;99.90;;;;;;5043780;28;20045;-83
2021/01/29 07:28:40;;;;;;;0.45;0.20;;;7.30;99.90;;;;;;5032747;28;20108;-81
2021/01/29 07:31:14;;;;;;;0.93;0.30;;;7.40;99.90;;;;;;5042724;28;20103;-85
2021/01/29 07:33:52;;;;;;;0.35;0.15;;;7.50;99.90;;;;;;5019261;28;20021;-81
2021/01/29 07:36:40;;;;;;;0.43;0.20;;;7.60;99.90;;;;;;5045521;28;20029;-82
2021/01/29 07:39:40;;;;;;;0.20;0.20;;;7.60;99.90;;;;;;5028826;28;20040;-81
2021/01/29 07:42:33;;;;;;;0.45;0.20;;;7.80;99.90;;;;;;5032951;28;20026;-82
2021/01/29 07:45:04;;;;;;;0.32;0.25;;;8.00;99.90;;;;;;5032292;28;20060;-84
2021/01/29 07:47:47;;;;;;;0.25;0.20;;;8.10;99.90;;;;;;5019529;28;20026;-82
2021/01/29 07:50:36;;;;;;;0.80;0.20;;;8.10;99.90;;;;;;5038533;28;20048;-83
2021/01/29 07:53:18;;;;;;;0.10;0.10;;;8.10;99.90;;;;;;5038144;28;20032;-81
2021/01/29 07:56:19;;;;;;;0.28;0.28;;;8.30;99.90;;;;;;5049116;28;20040;-86
2021/01/29 07:59:20;;;;;;;0.82;0.20;;;8.40;99.90;;;;;;5042785;28;20029;-83
2021/01/29 08:01:45;;;;;;;1.55;0.20;;;8.40;99.90;;;;;;5029455;28;20040;-86
2021/01/29 08:04:26;;;;;;;0.20;0.20;;;8.60;99.90;;;;;;5048011;28;20017;-91
2021/01/29 08:07:17;;;;;;;0.40;0.20;;;8.60;99.90;;;;;;5045078;28;20025;-89
2021/01/29 08:10:08;;;;;;;0.10;0.10;;;8.60;99.90;;;;;;5068249;28;20016;-87
2021/01/29 08:12:44;;;;;;;0.30;0.20;;;8.70;99.90;;;;;;5045325;28;20017;-86
2021/01/29 08:15:21;;;;;;;0.77;0.20;;;8.70;99.90;;;;;;5036702;28;20039;-84
2021/01/29 08:18:16;;;;;;;0.20;0.10;;;8.60;99.90;;;;;;5058681;28;20035;-84
2021/01/29 08:20:45;;;;;;;0.22;0.20;;;8.50;99.90;;;;;;5061670;28;20013;-84
2021/01/29 08:23:24;;;;;;;0.68;0.20;;;8.50;99.90;;;;;;5049283;28;20086;-82
2021/01/29 08:26:12;;;;;;;0.10;0.10;;;8.60;99.90;;;;;;5056677;28;20057;-84
2021/01/29 08:29:14;;;;;;;0.00;0.00;;;8.90;99.90;;;;;;5034952;28;20068;-85
2021/01/29 08:32:09;;;;;;;1.00;0.22;;;9.10;99.90;;;;;;4956974;28;20516;-83
2021/01/29 08:34:53;;;;;;;0.20;0.20;;;9.00;99.90;;;;;;4910449;29;20036;-84
2021/01/29 08:37:42;;;;;;;0.10;0.10;;;9.00;99.90;;;;;;4910929;29;20145;-85
2021/01/29 08:40:28;;;;;;;0.20;0.17;;;9.00;99.90;;;;;;4916086;29;20095;-86
2021/01/29 08:43:06;;;;;;;0.35;0.20;;;8.90;99.90;;;;;;4922182;29;20039;-87
2021/01/29 08:45:47;;;;;;;0.30;0.20;;;8.90;99.90;;;;;;4925088;29;20095;-91
2021/01/29 08:48:34;;;;;;;0.22;0.20;;;9.00;99.90;;;;;;4923202;29;20032;-86
2021/01/29 08:51:25;;;;;;;0.10;0.10;;;9.00;99.90;;;;;;4914992;29;20058;-87
2021/01/29 08:54:16;;;;;;;0.10;0.10;;;9.00;99.90;;;;;;4898967;29;20048;-91
2021/01/29 08:56:50;;;;;;;0.47;0.20;;;8.90;99.90;;;;;;4912635;29;20044;-88
2021/01/29 08:59:18;;;;;;;1.23;0.20;;;8.80;99.90;;;;;;4923274;29;20054;-86
2021/01/29 09:01:59;;;;;;;0.30;0.20;;;8.80;99.90;;;;;;4930704;29;20119;-89
2021/01/29 09:04:52;;;;;;;0.10;0.10;;;8.70;99.90;;;;;;4927511;29;20036;-91
2021/01/29 09:07:27;;;;;;;0.75;0.10;;;8.60;99.90;;;;;;4941302;29;20043;-89
2021/01/29 09:10:13;;;;;;;1.25;0.40;;;8.60;99.90;;;;;;4997392;28;20046;-90
2021/01/29 09:12:41;;;;;;;0.10;0.10;;;8.60;99.90;;;;;;5050648;28;20063;-89
2021/01/29 09:15:37;;;;;;;0.20;0.20;;;8.50;99.90;;;;;;5052377;28;20037;-91
2021/01/29 09:18:15;;;;;;;0.40;0.25;;;8.60;99.90;;;;;;5066114;28;20033;-89
2021/01/29 09:20:47;;;;;;;0.50;0.22;;;8.60;99.90;;;;;;5058042;28;20061;-89
2021/01/29 09:23:42;;;;;;;0.40;0.20;;;8.60;99.90;;;;;;5041534;28;20043;-89
2021/01/29 09:26:22;;;;;;;0.30;0.20;;;8.60;99.90;;;;;;4957208;28;20175;-89
2021/01/29 09:28:54;;;;;;;;;;;8.60;99.90;;;;;;4959740;28;20027;-87
2021/01/29 09:31:27;;;;;;;0.10;0.10;;;8.60;99.90;;;;;;4958931;29;20056;-89
2021/01/29 09:34:17;;;;;;;0.15;0.15;;;8.60;99.90;;;;;;4959136;29;20146;-88
2021/01/29 09:36:48;;;;;;;0.35;0.20;;;8.60;99.90;;;;;;4984293;28;20098;-89
2021/01/29 09:39:22;;;;;;;0.10;0.10;;;8.60;99.90;;;;;;4970610;28;20199;-90
2021/01/29 09:41:54;;;;;;;0.38;0.20;;;8.70;99.90;;;;;;4953438;29;20027;-89
2021/01/29 09:44:41;;;;;;;0.43;0.20;;;8.70;99.90;;;;;;4955889;28;20038;-92
2021/01/29 09:47:09;;;;;;;0.10;0.10;;;8.80;99.90;;;;;;4954287;28;20087;-90
2021/01/29 09:49:38;;;;;;;0.30;0.30;;;8.90;99.90;;;;;;4967547;29;20063;-91
2021/01/29 09:52:29;;;;;;;0.40;0.20;;;8.90;99.90;;;;;;4977960;28;20018;-91
2021/01/29 09:55:27;;;;;;;0.20;0.17;;;9.00;99.90;;;;;;4980945;28;20070;-88
2021/01/29 09:58:22;;;;;;;1.08;0.30;;;9.10;99.90;;;;;;4958734;28;20027;-83
2021/01/29 10:01:14;;;;;;;2.30;0.38;;;9.20;99.90;;;;;;4945839;29;20039;-89
2021/01/29 10:03:59;;;;;;;0.90;0.20;;;9.20;99.90;;;;;;5043494;28;20033;-92
2021/01/29 10:06:46;;;;;;;0.30;0.10;;;9.20;99.90;;;;;;5052189;28;20032;-88
2021/01/29 10:09:16;;;;;;;0.70;0.20;;;9.20;99.90;;;;;;5054401;28;20025;-86
2021/01/29 10:11:57;;;;;;;0.17;0.17;;;9.20;99.90;;;;;;5041428;28;20091;-82
2021/01/29 10:14:55;;;;;;;2.20;0.30;;;9.20;99.90;;;;;;5040033;28;20372;-81
2021/01/29 10:17:45;;;;;;;0.22;0.20;;;9.30;99.90;;;;;;5045304;28;20026;-81
2021/01/29 10:20:21;;;;;;;0.25;0.20;;;9.20;99.90;;;;;;5029927;28;20021;-79
2021/01/29 10:23:06;;;;;;;1.38;0.40;;;9.20;99.90;;;;;;5051553;28;20033;-80
2021/01/29 10:25:47;;;;;;;0.63;0.30;;;9.30;99.90;;;;;;5050642;28;20048;-77
2021/01/29 10:28:33;;;;;;;0.40;0.20;;;9.30;99.90;;;;;;5044880;28;20053;-78
2021/01/29 10:31:04;;;;;;;0.20;0.15;;;9.40;99.90;;;;;;4957563;28;20051;-83
2021/01/29 10:33:57;;;;;;;0.45;0.13;;;9.40;99.90;;;;;;4959160;28;20492;-78
2021/01/29 10:36:30;;;;;;;0.10;0.10;;;9.40;99.90;;;;;;4962441;28;20093;-78
2021/01/29 10:39:06;;;;;;;0.20;0.20;;;9.40;99.90;;;;;;4957757;28;20047;-78
2021/01/29 10:41:53;;;;;;;0.40;0.20;;;9.40;99.90;;;;;;4958975;28;20074;-77
2021/01/29 10:44:28;;;;;;;0.32;0.30;;;9.50;99.90;;;;;;4966728;28;20031;-76
2021/01/29 10:47:14;;;;;;;0.47;0.30;;;9.40;99.90;;;;;;4970134;28;20043;-77
2021/01/29 10:50:11;;;;;;;1.02;0.30;;;9.50;99.90;;;;;;4977341;28;20394;-78
2021/01/29 10:52:55;;;;;;;0.25;0.20;;;9.50;99.90;;;;;;4968556;28;20100;-78
2021/01/29 10:55:24;;;;;;;1.80;0.20;;;9.60;99.90;;;;;;4962178;28;20151;-79
2021/01/29 10:57:56;;;;;;;0.28;0.20;;;9.60;99.90;;;;;;4968789;28;20355;-77
2021/01/29 11:00:25;;;;;;;0.35;0.32;;;9.60;99.90;;;;;;4962065;28;20045;-78
2021/01/29 11:03:07;;;;;;;0.60;0.28;;;9.70;99.90;;;;;;4968510;28;20471;-76
2021/01/29 11:05:38;;;;;;;0.10;0.10;;;9.70;99.90;;;;;;4954461;28;20035;-79
2021/01/29 11:08:24;;;;;;;1.35;0.25;;;9.70;99.90;;;;;;4995075;28;20392;-77
2021/01/29 11:10:59;;;;;;;0.17;0.10;;;9.70;99.90;;;;;;5047706;28;20036;-78
2021/01/29 11:13:46;;;;;;;0.68;0.40;;;9.60;99.90;;;;;;5044653;28;20033;-78
2021/01/29 11:16:16;;;;;;;0.80;0.30;;;9.50;99.90;;;;;;5041416;28;20025;-79
2021/01/29 11:18:42;;;;;;;0.55;0.30;;;9.70;99.90;;;;;;5046996;28;20032;-80
2021/01/29 11:21:11;;;;;;;0.10;0.10;;;9.70;99.90;;;;;;5046537;28;20120;-78
2021/01/29 11:24:02;;;;;;;0.30;0.20;;;9.60;99.90;;;;;;5050657;28;20107;-78
2021/01/29 11:26:43;;;;;;;0.52;0.40;;;9.60;99.90;;;;;;5044606;28;20132;-80
2021/01/29 11:29:35;;;;;;;0.40;0.40;;;9.70;99.90;;;;;;5048279;28;20083;-79
2021/01/29 11:32:28;;;;;;;0.82;0.30;;;9.80;99.90;;;;;;4988483;28;20106;-77
2021/01/29 11:35:43;;;;;;;0.88;0.40;;;9.70;99.90;;;;;;4985428;28;20049;-77
2021/01/29 11:38:18;;;;;;;0.63;0.10;;;9.80;99.90;;;;;;4983187;28;20050;-77
2021/01/29 11:40:59;;;;;;;0.30;0.20;;;9.70;99.90;;;;;;4988622;28;20034;-77
2021/01/29 11:43:43;;;;;;;0.28;0.25;;;9.80;99.90;;;;;;4987156;28;20135;-78
2021/01/29 11:46:14;;;;;;;0.17;0.10;;;9.70;99.90;;;;;;4987523;28;20116;-83
2021/01/29 11:48:46;;;;;;;1.30;0.30;;;;;;;;;;4988495;28;20116;-77
2021/01/29 11:51:30;;;;;;;0.70;0.20;;;9.60;99.90;;;;;;4987547;28;20042;-78
2021/01/29 11:54:06;;;;;;;0.50;0.20;;;9.70;99.90;;;;;;4987437;28;20106;-79
2021/01/29 11:57:01;;;;;;;0.22;0.22;;;9.70;99.90;;;;;;4988121;28;20174;-77
2021/01/29 12:00:03;;;;;;;0.10;0.10;;;9.70;99.90;;;;;;4987607;28;20030;-82
2021/01/29 12:02:34;;;;;;;0.52;0.15;;;9.70;99.90;;;;;;4988611;28;20038;-79
2021/01/29 12:05:30;;;;;;;0.47;0.32;;;9.80;99.90;;;;;;4986173;28;20125;-78
2021/01/29 12:08:20;;;;;;;0.77;0.30;;;9.90;99.90;;;;;;4986399;28;20030;-80
2021/01/29 12:10:51;;;;;;;1.02;0.32;;;9.80;99.90;;;;;;5047958;28;20040;-81
2021/01/29 12:13:49;;;;;;;0.35;0.30;;;9.90;99.90;;;;;;5048978;28;20037;-79
2021/01/29 12:16:22;;;;;;;0.30;0.20;;;10.00;99.90;;;;;;5044273;28;20045;-80
2021/01/29 12:18:51;;;;;;;0.52;0.30;;;10.10;99.90;;;;;;5050063;28;20029;-79
2021/01/29 12:21:34;;;;;;;0.55;0.30;;;10.20;99.90;;;;;;5049510;28;20029;-80
2021/01/29 12:24:19;;;;;;;0.20;0.20;;;10.20;99.90;;;;;;5043160;28;20029;-79
2021/01/29 12:27:21;;;;;;;0.45;0.22;;;10.10;99.90;;;;;;5043032;28;20036;-78
2021/01/29 12:30:07;;;;;;;0.60;0.30;;;10.10;99.90;;;;;;4972320;28;20115;-82
2021/01/29 12:32:51;;;;;;;1.27;0.40;;;10.10;99.90;;;;;;4972643;28;20047;-81
2021/01/29 12:35:23;;;;;;;0.30;0.30;;;10.10;99.90;;;;;;4972194;28;20517;-81
2021/01/29 12:38:04;;;;;;;0.30;0.30;;;10.00;99.90;;;;;;4967117;28;20065;-82
2021/01/29 12:40:32;;;;;;;0.70;0.30;;;10.10;99.90;;;;;;4969205;28;20077;-82
2021/01/29 12:43:20;;;;;;;1.13;0.30;;;10.10;99.90;;;;;;4968989;28;20109;-82
2021/01/29 12:45:58;;;;;;;1.75;0.28;;;10.10;99.90;;;;;;4965331;28;20031;-86
2021/01/29 12:48:47;;;;;;;0.73;0.10;;;10.30;99.90;;;;;;4970025;28;20687;-83
2021/01/29 12:51:22;;;;;;;0.85;0.30;;;10.40;99.90;;;;;;4974558;28;20458;-79
2021/01/29 12:53:51;;;;;;;1.75;0.40;;;10.40;99.90;;;;;;4967836;28;20530;-79
2021/01/29 12:56:19;;;;;;;0.43;0.20;;;10.30;99.90;;;;;;4968926;28;20051;-80
2021/01/29 12:58:52;;;;;;;2.70;0.30;;;10.20;99.90;;;;;;4965631;28;20032;-80
2021/01/29 13:01:35;;;;;;;0.52;0.35;;;10.30;99.90;;;;;;4962557;28;20074;-80
2021/01/29 13:04:18;;;;;;;0.63;0.35;;;10.20;99.90;;;;;;4976056;28;20777;-79
2021/01/29 13:07:02;;;;;;;0.95;0.45;;;10.00;99.90;;;;;;4997564;28;20090;-81
2021/01/29 13:09:33;;;;;;;1.08;0.68;;;10.00;99.90;;;;;;5042131;28;20136;-78
2021/01/29 13:12:12;;;;;;;0.52;0.25;;;10.00;99.90;;;;;;5041582;28;20500;-79
2021/01/29 13:15:01;;;;;;;0.73;0.20;;;9.80;99.90;;;;;;5032793;28;20032;-79
2021/01/29 13:17:45;;;;;;;0.28;0.20;;;9.90;99.90;;;;;;5038980;28;20033;-80
2021/01/29 13:20:12;;;;;;;0.38;0.10;;;10.00;99.90;;;;;;5045070;28;20116;-80
2021/01/29 13:22:49;;;;;;;0.30;0.13;;;9.90;99.90;;;;;;5036856;28;20049;-81
2021/01/29 13:25:22;;;;;;;4.38;0.20;;;9.90;99.90;;;;;;5048360;28;20218;-80
2021/01/29 13:28:07;;;;;;;1.38;0.35;;;9.70;99.90;;;;;;5040831;28;20102;-81
2021/01/29 13:30:40;;;;;;;0.38;0.20;;;10.00;99.90;;;;;;5034292;28;20045;-83
2021/01/29 13:33:25;;;;;;;0.40;0.30;;;10.10;99.90;;;;;;5020251;28;20169;-82
2021/01/29 13:36:21;;;;;;;0.70;0.20;;;10.20;99.90;;;;;;5042490;28;20040;-84
2021/01/29 13:38:47;;;;;;;0.77;0.30;;;10.30;99.90;;;;;;4986898;28;20085;-82
2021/01/29 13:41:21;;;;;;;1.00;0.30;;;10.40;99.90;;;;;;4992983;28;20039;-83
2021/01/29 13:43:48;;;;;;;0.52;0.20;;;10.10;99.90;;;;;;4988125;28;20133;-82
2021/01/29 13:46:25;;;;;;;0.13;0.13;;;9.80;99.90;;;;;;4991964;28;20038;-82
2021/01/29 13:49:24;;;;;;;0.70;0.30;;;9.60;99.90;;;;;;4988055;28;20532;-82
2021/01/29 13:51:52;;;;;;;0.40;0.20;;;9.30;99.90;;;;;;4990435;28;20038;-82
2021/01/29 13:54:37;;;;;;;0.17;0.10;;;9.20;99.90;;;;;;4985522;28;20041;-82
2021/01/29 13:57:18;;;;;;;0.30;0.28;;;8.90;99.90;;;;;;4989456;28;20513;-82
2021/01/29 13:59:51;;;;;;;0.90;0.20;;;8.80;99.90;;;;;;4983739;28;20035;-82
2021/01/29 14:02:38;;;;;;;0.38;0.30;;;8.80;99.90;;;;;;4987632;28;20229;-83
2021/01/29 14:05:12;;;;;;;0.30;0.30;;;8.70;99.90;;;;;;4989359;28;20220;-82
2021/01/29 14:07:39;;;;;;;0.10;0.10;;;8.60;99.90;;;;;;4990575;28;20811;-81